Home   Weather   France   Dole   Past weeks
Flag for France

Past Weather in Dole, Jura, France — Yesterday and Last 2 Weeks

Currently: 48 °F. Broken clouds. (Weather station: Dole Tavaux, France). See more current weather

Past Weather in Dole — Graph

°F

Dole Temperature Yesterday

Maximum temperature yesterday: 55 °F (at 12:00 am)
Minimum temperature yesterday: 43 °F (at 6:30 am)
Average temperature yesterday: 48 °F

High & Low Weather Summary for the Past Weeks

 TemperatureHumidityPressure
High81 °F (Apr 14, 5:00 pm)100% (Apr 10, 2:00 am)30.54 "Hg (Apr 10, 2:00 am)
Low36 °F (Apr 10, 6:00 am)31% (Apr 6, 2:30 pm)29.65 "Hg (Apr 8, 9:30 pm)
Average57 °F69%30.10 "Hg
* Reported Apr 2 11:00 am — Apr 17 11:00 am, Dole. Weather by CustomWeather, © 2024

Note: Actual official high and low records may vary slightly from our data, if they occured in-between our weather recording intervals... More about our weather records

Dole Weather History for the Previous 24 Hours

Scroll right to see more
 ConditionsComfort  
Time TempWeatherWind HumidityBarometerVisibility
11:00 am
Wed, Apr 17
46 °FPartly sunny.9 mph82%29.98 "HgN/A
10:30 am45 °FLight rain. Mostly cloudy.6 mph87%29.98 "HgN/A
10:00 am45 °FPartly sunny.5 mph87%29.95 "HgN/A
9:30 am45 °FOvercast.3 mph87%29.98 "HgN/A
9:00 am43 °FPartly sunny.1 mph93%29.98 "HgN/A
8:30 am41 °FPartly sunny.2 mph100%29.98 "HgN/A
8:00 am39 °FPassing clouds.3 mph100%29.95 "HgN/A
7:30 am37 °FClear.2 mph93%29.95 "Hg10 mi
7:00 am36 °FClear.6 mph100%29.95 "Hg10 mi
6:30 am37 °FPassing clouds.5 mph100%29.95 "HgN/A
6:00 am39 °FPassing clouds.3 mph100%29.95 "HgN/A
5:30 am39 °FPartly cloudy.3 mph100%29.95 "HgN/A
5:00 am37 °FPassing clouds.7 mph100%29.95 "HgN/A
4:30 am39 °FPassing clouds.7 mph93%29.95 "HgN/A
4:00 am39 °FOvercast.6 mph100%29.95 "HgN/A
3:30 am41 °FPartly cloudy.5 mph93%29.95 "HgN/A
3:00 am43 °FMostly cloudy.5 mph93%29.95 "HgN/A
2:30 am43 °FMostly cloudy.7 mph93%29.95 "HgN/A
2:00 am43 °FMostly cloudy.6 mph93%29.95 "HgN/A
1:30 am43 °FMostly cloudy.6 mph93%29.95 "HgN/A
1:00 am43 °FPartly cloudy.5 mph93%29.95 "HgN/A
12:30 am43 °FLight rain. Mostly cloudy.8 mph93%29.95 "HgN/A
12:00 am43 °FLight rain. Passing clouds.3 mph93%29.95 "Hg5 mi
11:30 pm
Tue, Apr 16
43 °FLight rain. Fog.10 mph93%29.95 "Hg3 mi
11:00 pm45 °FPartly cloudy.7 mph93%29.92 "HgN/A
10:30 pm45 °FPassing clouds.7 mph93%29.92 "HgN/A
10:00 pm45 °FQuite cool.7 mph93%29.95 "HgN/A
9:30 pm45 °FClear.6 mph93%29.92 "Hg10 mi
9:00 pm46 °FSunny.7 mph87%29.92 "Hg10 mi
8:30 pm46 °FCool.7 mph87%29.92 "HgN/A
8:00 pm48 °FCloudy.10 mph82%29.92 "HgN/A
7:30 pm46 °FMostly cloudy.7 mph87%29.92 "HgN/A
7:00 pm46 °FRain. Fog.15 mph87%29.92 "Hg3 mi
6:30 pm54 °FBroken clouds.18 mph54%29.89 "HgN/A
6:00 pm54 °FMostly cloudy.16 mph54%29.89 "HgN/A
5:30 pm55 °FPartly sunny.14 mph55%29.89 "HgN/A
5:00 pm54 °FCloudy.16 mph54%29.92 "HgN/A
4:30 pm54 °FCloudy.16 mph54%29.92 "HgN/A
4:00 pm55 °FBroken clouds.17 mph51%29.92 "HgN/A
3:30 pm54 °FBroken clouds.15 mph63%29.95 "HgN/A
3:00 pm54 °FBroken clouds.18 mph54%29.95 "HgN/A
2:30 pm50 °FBroken clouds.5 mph71%29.95 "HgN/A
2:00 pm52 °FMostly cloudy.16 mph58%29.95 "HgN/A
1:30 pm52 °FCloudy.16 mph54%29.98 "HgN/A
1:00 pm52 °FMore clouds than sun.16 mph54%29.98 "HgN/A
12:30 pm50 °FMore clouds than sun.15 mph62%29.98 "HgN/A
12:00 pm52 °FBroken clouds.14 mph54%29.98 "HgN/A
Weather by CustomWeather, © 2024

See weather overview